sensor_id;sensor_type;location;lat;lon;timestamp;temperature;humidity
75436;DHT22;64014;53.432;14.534;2022-10-16T09:26:09;17.50;71.40
75436;DHT22;64014;53.432;14.534;2022-10-16T09:28:36;17.40;71.00
75436;DHT22;64014;53.432;14.534;2022-10-16T09:31:02;17.30;71.50
75436;DHT22;64014;53.432;14.534;2022-10-16T09:33:37;17.20;71.70
75436;DHT22;64014;53.432;14.534;2022-10-16T09:36:05;17.40;71.50
75436;DHT22;64014;53.432;14.534;2022-10-16T09:38:36;17.60;70.30
75436;DHT22;64014;53.432;14.534;2022-10-16T09:41:21;18.00;68.90
75436;DHT22;64014;53.432;14.534;2022-10-16T09:43:59;18.00;68.80
75436;DHT22;64014;53.432;14.534;2022-10-16T09:47:04;18.40;66.80
75436;DHT22;64014;53.432;14.534;2022-10-16T09:49:30;18.20;66.60
75436;DHT22;64014;53.432;14.534;2022-10-16T09:52:11;18.60;65.50
75436;DHT22;64014;53.432;14.534;2022-10-16T09:54:37;18.50;65.30
75436;DHT22;64014;53.432;14.534;2022-10-16T09:57:07;18.60;65.10
75436;DHT22;64014;53.432;14.534;2022-10-16T09:59:46;18.70;64.40
75436;DHT22;64014;53.432;14.534;2022-10-16T10:05:25;18.80;63.80
75436;DHT22;64014;53.432;14.534;2022-10-16T10:07:56;18.70;64.10
75436;DHT22;64014;53.432;14.534;2022-10-16T10:10:28;18.80;63.90
75436;DHT22;64014;53.432;14.534;2022-10-16T10:38:11;18.90;64.20
75436;DHT22;64014;53.432;14.534;2022-10-16T10:40:52;18.90;63.60
75436;DHT22;64014;53.432;14.534;2022-10-16T10:52:20;18.60;63.80
75436;DHT22;64014;53.432;14.534;2022-10-16T13:29:54;22.20;57.50
75436;DHT22;64014;53.432;14.534;2022-10-16T13:32:26;22.40;57.20
75436;DHT22;64014;53.432;14.534;2022-10-16T13:34:52;22.20;56.60
75436;DHT22;64014;53.432;14.534;2022-10-16T13:37:22;21.70;56.60
75436;DHT22;64014;53.432;14.534;2022-10-16T13:39:48;21.10;58.00
75436;DHT22;64014;53.432;14.534;2022-10-16T13:42:23;20.90;58.20
75436;DHT22;64014;53.432;14.534;2022-10-16T13:44:51;20.60;58.90
75436;DHT22;64014;53.432;14.534;2022-10-16T13:47:23;20.80;58.20
75436;DHT22;64014;53.432;14.534;2022-10-16T13:50:04;21.20;57.40
75436;DHT22;64014;53.432;14.534;2022-10-16T13:52:31;21.70;56.70
75436;DHT22;64014;53.432;14.534;2022-10-16T13:54:57;21.90;54.80
75436;DHT22;64014;53.432;14.534;2022-10-16T13:57:25;21.90;53.90
75436;DHT22;64014;53.432;14.534;2022-10-16T13:59:52;21.90;54.00
75436;DHT22;64014;53.432;14.534;2022-10-16T14:04:48;22.00;53.00
75436;DHT22;64014;53.432;14.534;2022-10-16T14:07:37;22.10;52.70
75436;DHT22;64014;53.432;14.534;2022-10-16T14:12:15;22.50;51.70
75436;DHT22;64014;53.432;14.534;2022-10-16T14:15:22;22.50;51.50
75436;DHT22;64014;53.432;14.534;2022-10-16T14:17:50;22.30;51.20
75436;DHT22;64014;53.432;14.534;2022-10-16T14:20:17;22.30;51.10
75436;DHT22;64014;53.432;14.534;2022-10-16T14:22:44;22.50;50.90
75436;DHT22;64014;53.432;14.534;2022-10-16T14:30:56;22.30;51.80
75436;DHT22;64014;53.432;14.534;2022-10-16T14:33:32;22.40;51.60
75436;DHT22;64014;53.432;14.534;2022-10-16T14:36:14;22.40;51.30
75436;DHT22;64014;53.432;14.534;2022-10-16T14:38:52;22.30;51.50
75436;DHT22;64014;53.432;14.534;2022-10-16T14:41:22;22.10;51.80
75436;DHT22;64014;53.432;14.534;2022-10-16T14:43:52;21.80;52.00
75436;DHT22;64014;53.432;14.534;2022-10-16T14:46:34;21.40;52.90
75436;DHT22;64014;53.432;14.534;2022-10-16T14:49:15;21.00;53.70
75436;DHT22;64014;53.432;14.534;2022-10-16T14:51:42;20.50;54.70
75436;DHT22;64014;53.432;14.534;2022-10-16T14:54:10;20.20;55.40
75436;DHT22;64014;53.432;14.534;2022-10-16T14:56:57;19.90;56.20
75436;DHT22;64014;53.432;14.534;2022-10-16T14:59:35;19.60;56.70
75436;DHT22;64014;53.432;14.534;2022-10-16T15:04:49;19.10;58.00
75436;DHT22;64014;53.432;14.534;2022-10-16T15:07:15;18.90;58.60
75436;DHT22;64014;53.432;14.534;2022-10-16T15:09:41;18.90;58.80
75436;DHT22;64014;53.432;14.534;2022-10-16T15:12:07;18.70;59.00
75436;DHT22;64014;53.432;14.534;2022-10-16T15:14:33;18.60;59.60
75436;DHT22;64014;53.432;14.534;2022-10-16T15:16:59;18.50;60.00
75436;DHT22;64014;53.432;14.534;2022-10-16T15:19:25;18.40;60.40
75436;DHT22;64014;53.432;14.534;2022-10-16T15:21:51;18.20;60.70
75436;DHT22;64014;53.432;14.534;2022-10-16T15:24:18;18.10;61.00
75436;DHT22;64014;53.432;14.534;2022-10-16T15:26:43;18.00;61.40
75436;DHT22;64014;53.432;14.534;2022-10-16T15:29:11;18.00;61.60
75436;DHT22;64014;53.432;14.534;2022-10-16T15:31:37;17.80;61.90
75436;DHT22;64014;53.432;14.534;2022-10-16T15:34:03;17.80;62.20
75436;DHT22;64014;53.432;14.534;2022-10-16T15:36:37;17.70;62.60
75436;DHT22;64014;53.432;14.534;2022-10-16T15:39:04;17.50;63.00
75436;DHT22;64014;53.432;14.534;2022-10-16T15:41:30;17.50;63.30
75436;DHT22;64014;53.432;14.534;2022-10-16T15:45:20;17.50;63.70
75436;DHT22;64014;53.432;14.534;2022-10-16T15:47:46;17.20;64.10
75436;DHT22;64014;53.432;14.534;2022-10-16T15:50:14;17.20;64.50
75436;DHT22;64014;53.432;14.534;2022-10-16T15:52:41;17.20;65.20
75436;DHT22;64014;53.432;14.534;2022-10-16T15:55:08;16.90;65.20
75436;DHT22;64014;53.432;14.534;2022-10-16T15:57:35;16.80;65.50
75436;DHT22;64014;53.432;14.534;2022-10-16T16:00:07;16.70;65.90
75436;DHT22;64014;53.432;14.534;2022-10-16T16:02:34;16.60;66.20
75436;DHT22;64014;53.432;14.534;2022-10-16T16:05:00;16.50;66.60
75436;DHT22;64014;53.432;14.534;2022-10-16T16:07:25;16.50;66.90
75436;DHT22;64014;53.432;14.534;2022-10-16T16:09:53;16.40;67.10
75436;DHT22;64014;53.432;14.534;2022-10-16T16:12:19;16.40;67.20
75436;DHT22;64014;53.432;14.534;2022-10-16T16:14:44;16.20;67.50
75436;DHT22;64014;53.432;14.534;2022-10-16T16:17:13;16.20;67.60
75436;DHT22;64014;53.432;14.534;2022-10-16T16:19:39;16.10;67.80
75436;DHT22;64014;53.432;14.534;2022-10-16T16:34:29;15.50;69.50
75436;DHT22;64014;53.432;14.534;2022-10-16T16:36:56;15.40;70.00
75436;DHT22;64014;53.432;14.534;2022-10-16T16:39:22;15.30;69.90
75436;DHT22;64014;53.432;14.534;2022-10-16T16:41:49;15.30;69.80
75436;DHT22;64014;53.432;14.534;2022-10-16T16:44:16;15.30;69.80
75436;DHT22;64014;53.432;14.534;2022-10-16T16:46:43;15.20;69.90
75436;DHT22;64014;53.432;14.534;2022-10-16T16:49:11;15.10;69.80
75436;DHT22;64014;53.432;14.534;2022-10-16T16:51:38;15.10;69.90
75436;DHT22;64014;53.432;14.534;2022-10-16T16:54:04;15.00;70.10
75436;DHT22;64014;53.432;14.534;2022-10-16T16:56:30;15.00;70.30
75436;DHT22;64014;53.432;14.534;2022-10-16T16:58:56;14.90;70.40
75436;DHT22;64014;53.432;14.534;2022-10-16T17:01:24;14.80;70.70
75436;DHT22;64014;53.432;14.534;2022-10-16T17:03:52;14.70;71.00
75436;DHT22;64014;53.432;14.534;2022-10-16T17:06:19;14.60;71.20
75436;DHT22;64014;53.432;14.534;2022-10-16T17:08:45;14.60;71.40
75436;DHT22;64014;53.432;14.534;2022-10-16T17:11:14;14.50;71.60
75436;DHT22;64014;53.432;14.534;2022-10-16T17:13:40;14.50;71.80
75436;DHT22;64014;53.432;14.534;2022-10-16T17:16:06;14.40;71.90
75436;DHT22;64014;53.432;14.534;2022-10-16T17:18:33;14.30;72.10
75436;DHT22;64014;53.432;14.534;2022-10-16T17:21:00;14.30;72.30
75436;DHT22;64014;53.432;14.534;2022-10-16T17:23:26;14.20;72.70
75436;DHT22;64014;53.432;14.534;2022-10-16T17:25:53;14.10;73.00
75436;DHT22;64014;53.432;14.534;2022-10-16T17:28:19;14.10;73.20
75436;DHT22;64014;53.432;14.534;2022-10-16T17:30:45;14.00;73.30
75436;DHT22;64014;53.432;14.534;2022-10-16T17:33:11;14.00;73.60
75436;DHT22;64014;53.432;14.534;2022-10-16T17:35:43;13.90;73.80
75436;DHT22;64014;53.432;14.534;2022-10-16T17:38:10;13.90;74.10
75436;DHT22;64014;53.432;14.534;2022-10-16T17:40:37;13.90;74.30
75436;DHT22;64014;53.432;14.534;2022-10-16T17:43:03;13.80;74.60
75436;DHT22;64014;53.432;14.534;2022-10-16T17:45:29;13.70;74.70
75436;DHT22;64014;53.432;14.534;2022-10-16T17:47:57;13.70;74.80
75436;DHT22;64014;53.432;14.534;2022-10-16T17:50:23;13.70;75.00
75436;DHT22;64014;53.432;14.534;2022-10-16T17:52:50;13.60;75.00
75436;DHT22;64014;53.432;14.534;2022-10-16T17:55:16;13.50;75.10
75436;DHT22;64014;53.432;14.534;2022-10-16T17:57:42;13.50;75.10
75436;DHT22;64014;53.432;14.534;2022-10-16T18:00:08;13.50;75.20
75436;DHT22;64014;53.432;14.534;2022-10-16T18:02:35;13.50;75.10
75436;DHT22;64014;53.432;14.534;2022-10-16T18:05:01;13.50;75.00
75436;DHT22;64014;53.432;14.534;2022-10-16T18:07:29;13.50;74.90
75436;DHT22;64014;53.432;14.534;2022-10-16T18:09:54;13.50;74.90
75436;DHT22;64014;53.432;14.534;2022-10-16T18:12:20;13.50;74.90
75436;DHT22;64014;53.432;14.534;2022-10-16T18:14:46;13.50;74.80
75436;DHT22;64014;53.432;14.534;2022-10-16T18:17:12;13.40;74.80
75436;DHT22;64014;53.432;14.534;2022-10-16T18:19:38;13.30;74.80
75436;DHT22;64014;53.432;14.534;2022-10-16T18:22:04;13.30;74.80
75436;DHT22;64014;53.432;14.534;2022-10-16T18:24:29;13.30;74.70
75436;DHT22;64014;53.432;14.534;2022-10-16T18:26:55;13.30;74.80
75436;DHT22;64014;53.432;14.534;2022-10-16T18:30:29;13.20;75.00
75436;DHT22;64014;53.432;14.534;2022-10-16T18:32:54;13.10;75.20
75436;DHT22;64014;53.432;14.534;2022-10-16T18:35:20;13.10;75.30
75436;DHT22;64014;53.432;14.534;2022-10-16T18:37:46;13.00;75.50
75436;DHT22;64014;53.432;14.534;2022-10-16T18:40:12;13.00;75.70
75436;DHT22;64014;53.432;14.534;2022-10-16T18:42:38;12.90;75.90
75436;DHT22;64014;53.432;14.534;2022-10-16T18:45:04;12.90;76.10
75436;DHT22;64014;53.432;14.534;2022-10-16T18:47:29;12.80;76.20
75436;DHT22;64014;53.432;14.534;2022-10-16T18:49:55;12.80;76.50
75436;DHT22;64014;53.432;14.534;2022-10-16T18:52:21;12.70;76.80
75436;DHT22;64014;53.432;14.534;2022-10-16T18:54:48;12.60;76.90
75436;DHT22;64014;53.432;14.534;2022-10-16T18:57:14;12.50;77.10
75436;DHT22;64014;53.432;14.534;2022-10-16T18:59:41;12.50;77.10
75436;DHT22;64014;53.432;14.534;2022-10-16T19:02:08;12.50;77.30
75436;DHT22;64014;53.432;14.534;2022-10-16T19:04:34;12.50;77.50
75436;DHT22;64014;53.432;14.534;2022-10-16T19:07:00;12.40;77.80
75436;DHT22;64014;53.432;14.534;2022-10-16T19:09:25;12.30;78.10
75436;DHT22;64014;53.432;14.534;2022-10-16T19:11:51;12.20;78.20
75436;DHT22;64014;53.432;14.534;2022-10-16T19:14:18;12.20;78.30
75436;DHT22;64014;53.432;14.534;2022-10-16T19:16:46;12.20;78.30
75436;DHT22;64014;53.432;14.534;2022-10-16T19:19:15;12.20;78.20
75436;DHT22;64014;53.432;14.534;2022-10-16T19:21:43;12.10;78.30
75436;DHT22;64014;53.432;14.534;2022-10-16T19:24:12;12.10;78.50
75436;DHT22;64014;53.432;14.534;2022-10-16T19:26:38;12.00;78.70
75436;DHT22;64014;53.432;14.534;2022-10-16T19:29:04;12.00;78.90
75436;DHT22;64014;53.432;14.534;2022-10-16T19:31:31;12.00;79.00
75436;DHT22;64014;53.432;14.534;2022-10-16T19:34:00;11.90;79.10
75436;DHT22;64014;53.432;14.534;2022-10-16T19:36:29;11.90;79.30
75436;DHT22;64014;53.432;14.534;2022-10-16T19:39:01;11.90;79.50
75436;DHT22;64014;53.432;14.534;2022-10-16T19:41:29;11.90;79.70
75436;DHT22;64014;53.432;14.534;2022-10-16T19:43:58;11.90;79.70
